<?xml version="1.0" encoding="UTF-8" standalone="no" ?><gpx xmlns="http://www.topografix.com/GPX/1/1" xmlns:gpxx="http://www.garmin.com/xmlschemas/GpxExtensions/v3" xmlns:wptx1="http://www.garmin.com/xmlschemas/WaypointExtension/v1" xmlns:gpxtpx="http://www.garmin.com/xmlschemas/TrackPointExtension/v1" creator="Dakota 20" version="1.1" xmlns:xsi="http://www.w3.org/2001/XMLSchema-instance" xsi:schemaLocation="http://www.topografix.com/GPX/1/1 http://www.topografix.com/GPX/1/1/gpx.xsd http://www.garmin.com/xmlschemas/GpxExtensions/v3 http://www8.garmin.com/xmlschemas/GpxExtensionsv3.xsd http://www.garmin.com/xmlschemas/WaypointExtension/v1 http://www8.garmin.com/xmlschemas/WaypointExtensionv1.xsd http://www.garmin.com/xmlschemas/TrackPointExtension/v1 http://www.garmin.com/xmlschemas/TrackPointExtensionv1.xsd"><metadata><link href="http://www.garmin.com"><text>Garmin International</text></link><time>2017-09-13T14:20:25Z</time></metadata><trk><name>Current Track: 13 SEP 2017 09:57</name><extensions><gpxx:TrackExtension><gpxx:DisplayColor>Cyan</gpxx:DisplayColor></gpxx:TrackExtension></extensions><trkseg><trkpt lat="51.8262194283" lon="-2.0471796021"><ele>185.67</ele><time>2017-09-13T08:57:38Z</time></trkpt><trkpt lat="51.8262171652" lon="-2.0471726451"><ele>185.19</ele><time>2017-09-13T08:57:43Z</time></trkpt><trkpt lat="51.8262225296" lon="-2.0471814461"><ele>186.15</ele><time>2017-09-13T08:58:07Z</time></trkpt><trkpt lat="51.8262221944" lon="-2.0471820328"><ele>186.15</ele><time>2017-09-13T08:58:31Z</time></trkpt><trkpt lat="51.8262357730" lon="-2.0472081844"><ele>186.63</ele><time>2017-09-13T08:58:59Z</time></trkpt><trkpt lat="51.8262341805" lon="-2.0472256187"><ele>185.67</ele><time>2017-09-13T08:59:23Z</time></trkpt><trkpt lat="51.8262331747" lon="-2.0472340845"><ele>186.63</ele><time>2017-09-13T08:59:46Z</time></trkpt><trkpt lat="51.8263203464" lon="-2.0474365074"><ele>184.71</ele><time>2017-09-13T09:00:06Z</time></trkpt><trkpt lat="51.8264060095" lon="-2.0475888066"><ele>183.27</ele><time>2017-09-13T09:00:27Z</time></trkpt><trkpt lat="51.8265122920" lon="-2.0477501582"><ele>181.83</ele><time>2017-09-13T09:00:50Z</time></trkpt><trkpt lat="51.8265954405" lon="-2.0479316264"><ele>179.90</ele><time>2017-09-13T09:01:05Z</time></trkpt><trkpt lat="51.8266045768" lon="-2.0482169464"><ele>179.42</ele><time>2017-09-13T09:01:29Z</time></trkpt><trkpt lat="51.8267371785" lon="-2.0482170302"><ele>179.90</ele><time>2017-09-13T09:01:43Z</time></trkpt><trkpt lat="51.8267733883" lon="-2.0482489653"><ele>180.38</ele><time>2017-09-13T09:01:47Z</time></trkpt><trkpt lat="51.8269042298" lon="-2.0485891867"><ele>181.35</ele><time>2017-09-13T09:02:07Z</time></trkpt><trkpt lat="51.8269354943" lon="-2.0486084651"><ele>184.71</ele><time>2017-09-13T09:02:14Z</time></trkpt><trkpt lat="51.8268912379" lon="-2.0487735048"><ele>183.75</ele><time>2017-09-13T09:02:17Z</time></trkpt><trkpt lat="51.8269481510" lon="-2.0488397218"><ele>185.19</ele><time>2017-09-13T09:02:22Z</time></trkpt><trkpt lat="51.8270551041" lon="-2.0490807854"><ele>187.11</ele><time>2017-09-13T09:02:45Z</time></trkpt><trkpt lat="51.8272047210" lon="-2.0492321625"><ele>186.63</ele><time>2017-09-13T09:03:05Z</time></trkpt><trkpt lat="51.8273488898" lon="-2.0494751539"><ele>188.08</ele><time>2017-09-13T09:03:24Z</time></trkpt><trkpt lat="51.8273521587" lon="-2.0494918339"><ele>189.04</ele><time>2017-09-13T09:03:25Z</time></trkpt><trkpt lat="51.8273574393" lon="-2.0495038200"><ele>188.08</ele><time>2017-09-13T09:03:26Z</time></trkpt><trkpt lat="51.8273621332" lon="-2.0495101903"><ele>189.52</ele><time>2017-09-13T09:03:27Z</time></trkpt><trkpt lat="51.8274283502" lon="-2.0496033970"><ele>188.56</ele><time>2017-09-13T09:03:45Z</time></trkpt><trkpt lat="51.8274306972" lon="-2.0496027265"><ele>187.59</ele><time>2017-09-13T09:03:46Z</time></trkpt><trkpt lat="51.8274346367" lon="-2.0496014692"><ele>189.04</ele><time>2017-09-13T09:03:47Z</time></trkpt><trkpt lat="51.8275514804" lon="-2.0494535286"><ele>189.52</ele><time>2017-09-13T09:04:10Z</time></trkpt><trkpt lat="51.8274612911" lon="-2.0496658422"><ele>189.04</ele><time>2017-09-13T09:04:31Z</time></trkpt><trkpt lat="51.8274471257" lon="-2.0498649962"><ele>189.04</ele><time>2017-09-13T09:04:45Z</time></trkpt><trkpt lat="51.8275364768" lon="-2.0501795691"><ele>190.48</ele><time>2017-09-13T09:05:05Z</time></trkpt><trkpt lat="51.8276722636" lon="-2.0504892804"><ele>191.44</ele><time>2017-09-13T09:05:29Z</time></trkpt><trkpt lat="51.8277933821" lon="-2.0507341996"><ele>191.44</ele><time>2017-09-13T09:05:48Z</time></trkpt><trkpt lat="51.8278616946" lon="-2.0508554857"><ele>192.40</ele><time>2017-09-13T09:06:06Z</time></trkpt><trkpt lat="51.8278663047" lon="-2.0508740097"><ele>191.92</ele><time>2017-09-13T09:06:14Z</time></trkpt><trkpt lat="51.8280247226" lon="-2.0512093697"><ele>192.40</ele><time>2017-09-13T09:06:37Z</time></trkpt><trkpt lat="51.8281253055" lon="-2.0515360963"><ele>193.36</ele><time>2017-09-13T09:07:00Z</time></trkpt><trkpt lat="51.8281885888" lon="-2.0516366791"><ele>193.36</ele><time>2017-09-13T09:07:08Z</time></trkpt><trkpt lat="51.8282800354" lon="-2.0518431254"><ele>193.36</ele><time>2017-09-13T09:07:24Z</time></trkpt><trkpt lat="51.8284403812" lon="-2.0521830954"><ele>194.80</ele><time>2017-09-13T09:07:50Z</time></trkpt><trkpt lat="51.8284127209" lon="-2.0523442794"><ele>194.80</ele><time>2017-09-13T09:08:08Z</time></trkpt><trkpt lat="51.8283996452" lon="-2.0525276754"><ele>194.32</ele><time>2017-09-13T09:08:27Z</time></trkpt><trkpt lat="51.8284266349" lon="-2.0530351996"><ele>193.84</ele><time>2017-09-13T09:08:50Z</time></trkpt><trkpt lat="51.8285303190" lon="-2.0531238802"><ele>193.84</ele><time>2017-09-13T09:09:11Z</time></trkpt><trkpt lat="51.8286353443" lon="-2.0532368682"><ele>195.28</ele><time>2017-09-13T09:09:24Z</time></trkpt><trkpt lat="51.8286372721" lon="-2.0532460045"><ele>194.80</ele><time>2017-09-13T09:09:25Z</time></trkpt><trkpt lat="51.8287293054" lon="-2.0534649398"><ele>195.28</ele><time>2017-09-13T09:09:41Z</time></trkpt><trkpt lat="51.8287103623" lon="-2.0538562909"><ele>194.80</ele><time>2017-09-13T09:10:01Z</time></trkpt><trkpt lat="51.8288477417" lon="-2.0540940017"><ele>197.69</ele><time>2017-09-13T09:10:23Z</time></trkpt><trkpt lat="51.8289556168" lon="-2.0542982686"><ele>199.13</ele><time>2017-09-13T09:10:43Z</time></trkpt><trkpt lat="51.8290571216" lon="-2.0543767232"><ele>199.13</ele><time>2017-09-13T09:10:58Z</time></trkpt><trkpt lat="51.8291554414" lon="-2.0544110890"><ele>199.13</ele><time>2017-09-13T09:11:16Z</time></trkpt><trkpt lat="51.8292841874" lon="-2.0543896314"><ele>198.65</ele><time>2017-09-13T09:11:38Z</time></trkpt><trkpt lat="51.8295235746" lon="-2.0542888809"><ele>197.69</ele><time>2017-09-13T09:12:00Z</time></trkpt><trkpt lat="51.8297486287" lon="-2.0542428643"><ele>196.25</ele><time>2017-09-13T09:12:21Z</time></trkpt><trkpt lat="51.8298445176" lon="-2.0542376675"><ele>195.77</ele><time>2017-09-13T09:12:41Z</time></trkpt><trkpt lat="51.8300816417" lon="-2.0540925767"><ele>194.32</ele><time>2017-09-13T09:13:05Z</time></trkpt><trkpt lat="51.8301844038" lon="-2.0540533494"><ele>193.84</ele><time>2017-09-13T09:13:24Z</time></trkpt><trkpt lat="51.8303415645" lon="-2.0539564546"><ele>192.88</ele><time>2017-09-13T09:13:43Z</time></trkpt><trkpt lat="51.8304169178" lon="-2.0539222565"><ele>192.40</ele><time>2017-09-13T09:14:07Z</time></trkpt><trkpt lat="51.8304298259" lon="-2.0538779162"><ele>191.44</ele><time>2017-09-13T09:14:27Z</time></trkpt><trkpt lat="51.8305151537" lon="-2.0538204163"><ele>191.44</ele><time>2017-09-13T09:14:36Z</time></trkpt><trkpt lat="51.8305240385" lon="-2.0537695382"><ele>191.92</ele><time>2017-09-13T09:14:39Z</time></trkpt><trkpt lat="51.8305539619" lon="-2.0537049975"><ele>191.92</ele><time>2017-09-13T09:14:43Z</time></trkpt><trkpt lat="51.8307490088" lon="-2.0537406206"><ele>191.92</ele><time>2017-09-13T09:15:04Z</time></trkpt><trkpt lat="51.8308101967" lon="-2.0538375154"><ele>192.88</ele><time>2017-09-13T09:15:08Z</time></trkpt><trkpt lat="51.8308457360" lon="-2.0539119467"><ele>193.36</ele><time>2017-09-13T09:15:11Z</time></trkpt><trkpt lat="51.8309576344" lon="-2.0541113522"><ele>192.88</ele><time>2017-09-13T09:15:27Z</time></trkpt><trkpt lat="51.8309402000" lon="-2.0544445328"><ele>192.40</ele><time>2017-09-13T09:15:49Z</time></trkpt><trkpt lat="51.8310481589" lon="-2.0547015220"><ele>193.36</ele><time>2017-09-13T09:16:11Z</time></trkpt><trkpt lat="51.8311152142" lon="-2.0548213832"><ele>193.36</ele><time>2017-09-13T09:16:30Z</time></trkpt><trkpt lat="51.8312198203" lon="-2.0550381392"><ele>195.77</ele><time>2017-09-13T09:16:51Z</time></trkpt><trkpt lat="51.8312642444" lon="-2.0553705655"><ele>197.21</ele><time>2017-09-13T09:17:14Z</time></trkpt><trkpt lat="51.8312831037" lon="-2.0554049313"><ele>198.17</ele><time>2017-09-13T09:17:32Z</time></trkpt><trkpt lat="51.8312717881" lon="-2.0555470046"><ele>199.13</ele><time>2017-09-13T09:17:56Z</time></trkpt><trkpt lat="51.8313319702" lon="-2.0554594975"><ele>198.17</ele><time>2017-09-13T09:18:17Z</time></trkpt><trkpt lat="51.8313755561" lon="-2.0551827271"><ele>200.57</ele><time>2017-09-13T09:18:38Z</time></trkpt><trkpt lat="51.8314305414" lon="-2.0550547354"><ele>201.05</ele><time>2017-09-13T09:18:59Z</time></trkpt><trkpt lat="51.8314426951" lon="-2.0550332777"><ele>201.53</ele><time>2017-09-13T09:19:23Z</time></trkpt><trkpt lat="51.8314637337" lon="-2.0549980737"><ele>201.53</ele><time>2017-09-13T09:19:46Z</time></trkpt><trkpt lat="51.8315018713" lon="-2.0549489558"><ele>202.49</ele><time>2017-09-13T09:19:49Z</time></trkpt><trkpt lat="51.8316585291" lon="-2.0548617840"><ele>203.94</ele><time>2017-09-13T09:20:10Z</time></trkpt><trkpt lat="51.8317026179" lon="-2.0548347943"><ele>205.38</ele><time>2017-09-13T09:20:28Z</time></trkpt><trkpt lat="51.8318046257" lon="-2.0548204612"><ele>205.86</ele><time>2017-09-13T09:20:38Z</time></trkpt><trkpt lat="51.8319930509" lon="-2.0547155198"><ele>206.34</ele><time>2017-09-13T09:20:58Z</time></trkpt><trkpt lat="51.8321378063" lon="-2.0547186211"><ele>207.78</ele><time>2017-09-13T09:21:18Z</time></trkpt><trkpt lat="51.8323215377" lon="-2.0545554254"><ele>207.78</ele><time>2017-09-13T09:21:42Z</time></trkpt><trkpt lat="51.8325046822" lon="-2.0545066427"><ele>207.78</ele><time>2017-09-13T09:22:03Z</time></trkpt><trkpt lat="51.8326697219" lon="-2.0545457024"><ele>206.34</ele><time>2017-09-13T09:22:23Z</time></trkpt><trkpt lat="51.8327242043" lon="-2.0545575209"><ele>206.34</ele><time>2017-09-13T09:22:40Z</time></trkpt><trkpt lat="51.8328697141" lon="-2.0544984285"><ele>205.38</ele><time>2017-09-13T09:22:59Z</time></trkpt><trkpt lat="51.8332028948" lon="-2.0544401743"><ele>204.90</ele><time>2017-09-13T09:23:20Z</time></trkpt><trkpt lat="51.8333385978" lon="-2.0544514060"><ele>204.42</ele><time>2017-09-13T09:23:39Z</time></trkpt><trkpt lat="51.8336283602" lon="-2.0544373244"><ele>203.46</ele><time>2017-09-13T09:24:02Z</time></trkpt><trkpt lat="51.8338545039" lon="-2.0544888731"><ele>202.98</ele><time>2017-09-13T09:24:25Z</time></trkpt><trkpt lat="51.8340854254" lon="-2.0545074809"><ele>202.98</ele><time>2017-09-13T09:24:46Z</time></trkpt><trkpt lat="51.8342027720" lon="-2.0545757934"><ele>202.98</ele><time>2017-09-13T09:25:07Z</time></trkpt><trkpt lat="51.8343831506" lon="-2.0546491351"><ele>203.46</ele><time>2017-09-13T09:25:28Z</time></trkpt><trkpt lat="51.8344694842" lon="-2.0546866860"><ele>203.46</ele><time>2017-09-13T09:25:45Z</time></trkpt><trkpt lat="51.8346968014" lon="-2.0547344629"><ele>203.46</ele><time>2017-09-13T09:26:05Z</time></trkpt><trkpt lat="51.8348331749" lon="-2.0548107382"><ele>203.94</ele><time>2017-09-13T09:26:28Z</time></trkpt><trkpt lat="51.8349875696" lon="-2.0549486205"><ele>203.94</ele><time>2017-09-13T09:26:48Z</time></trkpt><trkpt lat="51.8351957761" lon="-2.0550412405"><ele>204.42</ele><time>2017-09-13T09:27:08Z</time></trkpt><trkpt lat="51.8352987058" lon="-2.0551693998"><ele>204.42</ele><time>2017-09-13T09:27:29Z</time></trkpt><trkpt lat="51.8354692776" lon="-2.0552334376"><ele>204.42</ele><time>2017-09-13T09:27:44Z</time></trkpt><trkpt lat="51.8357022107" lon="-2.0553014148"><ele>203.94</ele><time>2017-09-13T09:28:07Z</time></trkpt><trkpt lat="51.8357784860" lon="-2.0554021653"><ele>203.94</ele><time>2017-09-13T09:28:25Z</time></trkpt><trkpt lat="51.8358108401" lon="-2.0554417279"><ele>203.94</ele><time>2017-09-13T09:28:28Z</time></trkpt><trkpt lat="51.8360617943" lon="-2.0555663668"><ele>202.01</ele><time>2017-09-13T09:28:51Z</time></trkpt><trkpt lat="51.8361573480" lon="-2.0557064284"><ele>200.09</ele><time>2017-09-13T09:29:10Z</time></trkpt><trkpt lat="51.8362603616" lon="-2.0559298899"><ele>198.65</ele><time>2017-09-13T09:29:33Z</time></trkpt><trkpt lat="51.8363946397" lon="-2.0561271999"><ele>195.77</ele><time>2017-09-13T09:29:54Z</time></trkpt><trkpt lat="51.8365051970" lon="-2.0562892221"><ele>193.84</ele><time>2017-09-13T09:30:13Z</time></trkpt><trkpt lat="51.8365953863" lon="-2.0564968418"><ele>191.44</ele><time>2017-09-13T09:30:31Z</time></trkpt><trkpt lat="51.8366497010" lon="-2.0565562695"><ele>191.44</ele><time>2017-09-13T09:30:48Z</time></trkpt><trkpt lat="51.8367038481" lon="-2.0565286092"><ele>191.44</ele><time>2017-09-13T09:31:08Z</time></trkpt><trkpt lat="51.8367428239" lon="-2.0566075668"><ele>190.48</ele><time>2017-09-13T09:31:30Z</time></trkpt><trkpt lat="51.8367575761" lon="-2.0567284338"><ele>190.48</ele><time>2017-09-13T09:31:51Z</time></trkpt><trkpt lat="51.8369144853" lon="-2.0569066331"><ele>190.96</ele><time>2017-09-13T09:32:11Z</time></trkpt><trkpt lat="51.8370376993" lon="-2.0571626164"><ele>192.88</ele><time>2017-09-13T09:32:33Z</time></trkpt><trkpt lat="51.8371435627" lon="-2.0572402328"><ele>194.32</ele><time>2017-09-13T09:32:52Z</time></trkpt><trkpt lat="51.8372963648" lon="-2.0573416539"><ele>194.32</ele><time>2017-09-13T09:33:12Z</time></trkpt><trkpt lat="51.8374515139" lon="-2.0574701484"><ele>196.73</ele><time>2017-09-13T09:33:35Z</time></trkpt><trkpt lat="51.8375242688" lon="-2.0576480962"><ele>197.21</ele><time>2017-09-13T09:33:49Z</time></trkpt><trkpt lat="51.8376147095" lon="-2.0577494334"><ele>198.65</ele><time>2017-09-13T09:34:05Z</time></trkpt><trkpt lat="51.8378151208" lon="-2.0578963682"><ele>200.57</ele><time>2017-09-13T09:34:30Z</time></trkpt><trkpt lat="51.8379687611" lon="-2.0580860507"><ele>201.53</ele><time>2017-09-13T09:34:49Z</time></trkpt><trkpt lat="51.8381838407" lon="-2.0582268666"><ele>201.53</ele><time>2017-09-13T09:35:10Z</time></trkpt><trkpt lat="51.8383829948" lon="-2.0583449677"><ele>203.46</ele><time>2017-09-13T09:35:31Z</time></trkpt><trkpt lat="51.8384656403" lon="-2.0585532580"><ele>204.42</ele><time>2017-09-13T09:35:51Z</time></trkpt><trkpt lat="51.8385641277" lon="-2.0587242488"><ele>205.38</ele><time>2017-09-13T09:36:10Z</time></trkpt><trkpt lat="51.8387533911" lon="-2.0588837564"><ele>206.82</ele><time>2017-09-13T09:36:30Z</time></trkpt><trkpt lat="51.8388094660" lon="-2.0589121711"><ele>206.34</ele><time>2017-09-13T09:36:35Z</time></trkpt><trkpt lat="51.8389740866" lon="-2.0590954833"><ele>207.30</ele><time>2017-09-13T09:36:56Z</time></trkpt><trkpt lat="51.8390558101" lon="-2.0591297653"><ele>207.78</ele><time>2017-09-13T09:37:15Z</time></trkpt><trkpt lat="51.8391888309" lon="-2.0592346229"><ele>208.26</ele><time>2017-09-13T09:37:33Z</time></trkpt><trkpt lat="51.8391762581" lon="-2.0592224691"><ele>208.74</ele><time>2017-09-13T09:37:59Z</time></trkpt><trkpt lat="51.8391455803" lon="-2.0592217147"><ele>208.74</ele><time>2017-09-13T09:38:00Z</time></trkpt><trkpt lat="51.8392109592" lon="-2.0594301727"><ele>208.74</ele><time>2017-09-13T09:38:15Z</time></trkpt><trkpt lat="51.8392475881" lon="-2.0597926900"><ele>209.70</ele><time>2017-09-13T09:38:36Z</time></trkpt><trkpt lat="51.8392120488" lon="-2.0601326600"><ele>210.67</ele><time>2017-09-13T09:38:53Z</time></trkpt><trkpt lat="51.8391405512" lon="-2.0605965983"><ele>212.11</ele><time>2017-09-13T09:39:17Z</time></trkpt><trkpt lat="51.8391558062" lon="-2.0606969297"><ele>213.07</ele><time>2017-09-13T09:39:38Z</time></trkpt><trkpt lat="51.8391526211" lon="-2.0609579422"><ele>213.55</ele><time>2017-09-13T09:39:57Z</time></trkpt><trkpt lat="51.8391047604" lon="-2.0610969979"><ele>214.51</ele><time>2017-09-13T09:40:13Z</time></trkpt><trkpt lat="51.8390854821" lon="-2.0613647997"><ele>214.99</ele><time>2017-09-13T09:40:34Z</time></trkpt><trkpt lat="51.8390633538" lon="-2.0614840742"><ele>215.47</ele><time>2017-09-13T09:40:53Z</time></trkpt><trkpt lat="51.8390556425" lon="-2.0615071245"><ele>215.47</ele><time>2017-09-13T09:41:12Z</time></trkpt><trkpt lat="51.8390203547" lon="-2.0616229624"><ele>216.43</ele><time>2017-09-13T09:41:36Z</time></trkpt><trkpt lat="51.8389769364" lon="-2.0619216096"><ele>216.91</ele><time>2017-09-13T09:41:55Z</time></trkpt><trkpt lat="51.8389582448" lon="-2.0621216018"><ele>217.40</ele><time>2017-09-13T09:42:12Z</time></trkpt><trkpt lat="51.8389329314" lon="-2.0624114480"><ele>217.88</ele><time>2017-09-13T09:42:34Z</time></trkpt><trkpt lat="51.8389325961" lon="-2.0626679342"><ele>219.32</ele><time>2017-09-13T09:42:53Z</time></trkpt><trkpt lat="51.8389292434" lon="-2.0627323911"><ele>218.84</ele><time>2017-09-13T09:43:00Z</time></trkpt><trkpt lat="51.8389281537" lon="-2.0630011987"><ele>219.80</ele><time>2017-09-13T09:43:20Z</time></trkpt><trkpt lat="51.8389310874" lon="-2.0632553380"><ele>219.80</ele><time>2017-09-13T09:43:40Z</time></trkpt><trkpt lat="51.8389495276" lon="-2.0632750355"><ele>220.28</ele><time>2017-09-13T09:43:58Z</time></trkpt><trkpt lat="51.8389710691" lon="-2.0633021090"><ele>220.76</ele><time>2017-09-13T09:44:19Z</time></trkpt><trkpt lat="51.8389612623" lon="-2.0633150171"><ele>219.80</ele><time>2017-09-13T09:44:39Z</time></trkpt><trkpt lat="51.8389760982" lon="-2.0633170288"><ele>220.76</ele><time>2017-09-13T09:45:01Z</time></trkpt><trkpt lat="51.8389719911" lon="-2.0633192081"><ele>220.76</ele><time>2017-09-13T09:45:22Z</time></trkpt><trkpt lat="51.8389631901" lon="-2.0633244049"><ele>221.24</ele><time>2017-09-13T09:45:46Z</time></trkpt><trkpt lat="51.8389656208" lon="-2.0633320324"><ele>220.76</ele><time>2017-09-13T09:46:06Z</time></trkpt><trkpt lat="51.8389640283" lon="-2.0633280929"><ele>220.76</ele><time>2017-09-13T09:46:34Z</time></trkpt><trkpt lat="51.8389700633" lon="-2.0633234829"><ele>220.28</ele><time>2017-09-13T09:47:00Z</time></trkpt><trkpt lat="51.8389495276" lon="-2.0633435156"><ele>219.80</ele><time>2017-09-13T09:47:07Z</time></trkpt><trkpt lat="51.8389122281" lon="-2.0633626264"><ele>219.32</ele><time>2017-09-13T09:47:11Z</time></trkpt><trkpt lat="51.8388964701" lon="-2.0633357204"><ele>216.43</ele><time>2017-09-13T09:47:28Z</time></trkpt><trkpt lat="51.8389091268" lon="-2.0633368101"><ele>225.09</ele><time>2017-09-13T09:47:29Z</time></trkpt><trkpt lat="51.8389123958" lon="-2.0633340441"><ele>219.80</ele><time>2017-09-13T09:47:30Z</time></trkpt><trkpt lat="51.8389501143" lon="-2.0633069705"><ele>220.28</ele><time>2017-09-13T09:47:55Z</time></trkpt><trkpt lat="51.8389412295" lon="-2.0633094851"><ele>222.20</ele><time>2017-09-13T09:48:20Z</time></trkpt><trkpt lat="51.8389274832" lon="-2.0633469522"><ele>218.84</ele><time>2017-09-13T09:48:23Z</time></trkpt><trkpt lat="51.8389304169" lon="-2.0634109061"><ele>219.80</ele><time>2017-09-13T09:48:26Z</time></trkpt><trkpt lat="51.8389407266" lon="-2.0635822322"><ele>221.72</ele><time>2017-09-13T09:48:35Z</time></trkpt><trkpt lat="51.8389762659" lon="-2.0637926180"><ele>221.24</ele><time>2017-09-13T09:48:46Z</time></trkpt><trkpt lat="51.8390040100" lon="-2.0641455799"><ele>222.68</ele><time>2017-09-13T09:49:03Z</time></trkpt><trkpt lat="51.8390092906" lon="-2.0644353423"><ele>221.72</ele><time>2017-09-13T09:49:17Z</time></trkpt><trkpt lat="51.8390368670" lon="-2.0648089238"><ele>224.12</ele><time>2017-09-13T09:49:34Z</time></trkpt><trkpt lat="51.8390427344" lon="-2.0649188105"><ele>223.64</ele><time>2017-09-13T09:49:40Z</time></trkpt><trkpt lat="51.8390705623" lon="-2.0650845207"><ele>222.68</ele><time>2017-09-13T09:49:48Z</time></trkpt><trkpt lat="51.8390828837" lon="-2.0652700122"><ele>223.16</ele><time>2017-09-13T09:49:56Z</time></trkpt><trkpt lat="51.8390883319" lon="-2.0653130114"><ele>224.12</ele><time>2017-09-13T09:49:58Z</time></trkpt><trkpt lat="51.8391171657" lon="-2.0656250697"><ele>224.61</ele><time>2017-09-13T09:50:14Z</time></trkpt><trkpt lat="51.8391460832" lon="-2.0659677219"><ele>223.64</ele><time>2017-09-13T09:50:30Z</time></trkpt><trkpt lat="51.8391452450" lon="-2.0659960527"><ele>224.61</ele><time>2017-09-13T09:50:32Z</time></trkpt><trkpt lat="51.8391423114" lon="-2.0660450868"><ele>223.64</ele><time>2017-09-13T09:50:34Z</time></trkpt><trkpt lat="51.8391268048" lon="-2.0661676303"><ele>226.53</ele><time>2017-09-13T09:50:38Z</time></trkpt><trkpt lat="51.8391346000" lon="-2.0663466677"><ele>226.05</ele><time>2017-09-13T09:50:51Z</time></trkpt><trkpt lat="51.8390815426" lon="-2.0664630085"><ele>224.61</ele><time>2017-09-13T09:51:00Z</time></trkpt><trkpt lat="51.8390545528" lon="-2.0665933471"><ele>225.57</ele><time>2017-09-13T09:51:17Z</time></trkpt><trkpt lat="51.8390380405" lon="-2.0667282958"><ele>226.05</ele><time>2017-09-13T09:51:32Z</time></trkpt><trkpt lat="51.8389993161" lon="-2.0669291262"><ele>226.53</ele><time>2017-09-13T09:51:47Z</time></trkpt><trkpt lat="51.8389206100" lon="-2.0671681780"><ele>224.61</ele><time>2017-09-13T09:52:06Z</time></trkpt><trkpt lat="51.8388865795" lon="-2.0674273465"><ele>226.53</ele><time>2017-09-13T09:52:24Z</time></trkpt><trkpt lat="51.8388092984" lon="-2.0677087270"><ele>227.01</ele><time>2017-09-13T09:52:43Z</time></trkpt><trkpt lat="51.8388033472" lon="-2.0678814780"><ele>228.45</ele><time>2017-09-13T09:53:00Z</time></trkpt><trkpt lat="51.8387401477" lon="-2.0680460148"><ele>227.01</ele><time>2017-09-13T09:53:13Z</time></trkpt><trkpt lat="51.8386954721" lon="-2.0681770239"><ele>227.01</ele><time>2017-09-13T09:53:21Z</time></trkpt><trkpt lat="51.8386099767" lon="-2.0684959553"><ele>227.97</ele><time>2017-09-13T09:53:41Z</time></trkpt><trkpt lat="51.8385951407" lon="-2.0686566364"><ele>228.45</ele><time>2017-09-13T09:53:55Z</time></trkpt><trkpt lat="51.8385220505" lon="-2.0688969456"><ele>230.37</ele><time>2017-09-13T09:54:12Z</time></trkpt><trkpt lat="51.8384905346" lon="-2.0690605603"><ele>229.41</ele><time>2017-09-13T09:54:27Z</time></trkpt><trkpt lat="51.8384141754" lon="-2.0692781545"><ele>229.89</ele><time>2017-09-13T09:54:44Z</time></trkpt><trkpt lat="51.8383548316" lon="-2.0695007779"><ele>229.89</ele><time>2017-09-13T09:55:00Z</time></trkpt><trkpt lat="51.8382770475" lon="-2.0697622094"><ele>230.37</ele><time>2017-09-13T09:55:18Z</time></trkpt><trkpt lat="51.8382261693" lon="-2.0698985830"><ele>230.37</ele><time>2017-09-13T09:55:33Z</time></trkpt><trkpt lat="51.8381799012" lon="-2.0701379701"><ele>230.37</ele><time>2017-09-13T09:55:50Z</time></trkpt><trkpt lat="51.8380752951" lon="-2.0703724958"><ele>230.85</ele><time>2017-09-13T09:56:09Z</time></trkpt><trkpt lat="51.8380295299" lon="-2.0705133118"><ele>229.41</ele><time>2017-09-13T09:56:26Z</time></trkpt><trkpt lat="51.8380284403" lon="-2.0705366135"><ele>229.89</ele><time>2017-09-13T09:56:42Z</time></trkpt><trkpt lat="51.8379957508" lon="-2.0706107095"><ele>228.93</ele><time>2017-09-13T09:57:05Z</time></trkpt><trkpt lat="51.8379333895" lon="-2.0708171558"><ele>229.41</ele><time>2017-09-13T09:57:21Z</time></trkpt><trkpt lat="51.8379041366" lon="-2.0708764996"><ele>228.93</ele><time>2017-09-13T09:57:26Z</time></trkpt><trkpt lat="51.8378963415" lon="-2.0709147211"><ele>229.41</ele><time>2017-09-13T09:57:28Z</time></trkpt><trkpt lat="51.8378045596" lon="-2.0711888094"><ele>228.45</ele><time>2017-09-13T09:57:45Z</time></trkpt><trkpt lat="51.8377107661" lon="-2.0713833533"><ele>228.45</ele><time>2017-09-13T09:58:01Z</time></trkpt><trkpt lat="51.8376518413" lon="-2.0715268515"><ele>228.45</ele><time>2017-09-13T09:58:12Z</time></trkpt><trkpt lat="51.8375307228" lon="-2.0718183741"><ele>227.49</ele><time>2017-09-13T09:58:31Z</time></trkpt><trkpt lat="51.8374500051" lon="-2.0720008481"><ele>227.01</ele><time>2017-09-13T09:58:48Z</time></trkpt><trkpt lat="51.8373227678" lon="-2.0721962303"><ele>226.05</ele><time>2017-09-13T09:59:09Z</time></trkpt><trkpt lat="51.8371853884" lon="-2.0723749325"><ele>226.05</ele><time>2017-09-13T09:59:29Z</time></trkpt><trkpt lat="51.8370523676" lon="-2.0725456718"><ele>226.05</ele><time>2017-09-13T09:59:47Z</time></trkpt><trkpt lat="51.8369163293" lon="-2.0726976357"><ele>225.57</ele><time>2017-09-13T10:00:07Z</time></trkpt><trkpt lat="51.8368017487" lon="-2.0728277229"><ele>226.53</ele><time>2017-09-13T10:00:25Z</time></trkpt><trkpt lat="51.8366864976" lon="-2.0729765855"><ele>226.53</ele><time>2017-09-13T10:00:44Z</time></trkpt><trkpt lat="51.8365484476" lon="-2.0731404517"><ele>227.49</ele><time>2017-09-13T10:01:02Z</time></trkpt><trkpt lat="51.8363962322" lon="-2.0733119454"><ele>228.45</ele><time>2017-09-13T10:01:22Z</time></trkpt><trkpt lat="51.8362756167" lon="-2.0734973531"><ele>228.45</ele><time>2017-09-13T10:01:43Z</time></trkpt><trkpt lat="51.8361851759" lon="-2.0736972615"><ele>228.93</ele><time>2017-09-13T10:02:02Z</time></trkpt><trkpt lat="51.8361929711" lon="-2.0737372432"><ele>229.41</ele><time>2017-09-13T10:02:18Z</time></trkpt><trkpt lat="51.8361846730" lon="-2.0737056434"><ele>228.93</ele><time>2017-09-13T10:02:36Z</time></trkpt><trkpt lat="51.8362058792" lon="-2.0737690944"><ele>229.89</ele><time>2017-09-13T10:02:56Z</time></trkpt><trkpt lat="51.8361881096" lon="-2.0737610478"><ele>229.89</ele><time>2017-09-13T10:03:14Z</time></trkpt><trkpt lat="51.8361804821" lon="-2.0737519115"><ele>229.41</ele><time>2017-09-13T10:03:29Z</time></trkpt><trkpt lat="51.8361930549" lon="-2.0737703517"><ele>229.89</ele><time>2017-09-13T10:03:51Z</time></trkpt><trkpt lat="51.8362044543" lon="-2.0737757161"><ele>229.89</ele><time>2017-09-13T10:04:20Z</time></trkpt><trkpt lat="51.8361933902" lon="-2.0737736207"><ele>229.89</ele><time>2017-09-13T10:04:39Z</time></trkpt><trkpt lat="51.8361918814" lon="-2.0737811644"><ele>229.41</ele><time>2017-09-13T10:05:08Z</time></trkpt><trkpt lat="51.8361902051" lon="-2.0737873670"><ele>229.41</ele><time>2017-09-13T10:05:37Z</time></trkpt><trkpt lat="51.8361896183" lon="-2.0737897977"><ele>229.41</ele><time>2017-09-13T10:06:06Z</time></trkpt><trkpt lat="51.8361890316" lon="-2.0737932343"><ele>229.41</ele><time>2017-09-13T10:06:35Z</time></trkpt><trkpt lat="51.8361876067" lon="-2.0737929828"><ele>229.89</ele><time>2017-09-13T10:07:02Z</time></trkpt><trkpt lat="51.8361809012" lon="-2.0737848524"><ele>230.37</ele><time>2017-09-13T10:07:29Z</time></trkpt><trkpt lat="51.8361645564" lon="-2.0738079026"><ele>230.85</ele><time>2017-09-13T10:07:49Z</time></trkpt><trkpt lat="51.8361759558" lon="-2.0737918094"><ele>231.33</ele><time>2017-09-13T10:08:17Z</time></trkpt><trkpt lat="51.8361860141" lon="-2.0737745427"><ele>231.33</ele><time>2017-09-13T10:08:43Z</time></trkpt><trkpt lat="51.8361901212" lon="-2.0737701841"><ele>231.33</ele><time>2017-09-13T10:09:11Z</time></trkpt><trkpt lat="51.8361836672" lon="-2.0737662446"><ele>231.33</ele><time>2017-09-13T10:09:41Z</time></trkpt><trkpt lat="51.8361823261" lon="-2.0737632271"><ele>231.33</ele><time>2017-09-13T10:10:05Z</time></trkpt><trkpt lat="51.8361855112" lon="-2.0737698488"><ele>241.91</ele><time>2017-09-13T10:10:34Z</time></trkpt><trkpt lat="51.8361883610" lon="-2.0737722795"><ele>232.30</ele><time>2017-09-13T10:10:35Z</time></trkpt><trkpt lat="51.8361833319" lon="-2.0737801585"><ele>231.81</ele><time>2017-09-13T10:10:57Z</time></trkpt><trkpt lat="51.8361928035" lon="-2.0737768896"><ele>231.81</ele><time>2017-09-13T10:11:22Z</time></trkpt><trkpt lat="51.8361938931" lon="-2.0737777278"><ele>230.85</ele><time>2017-09-13T10:11:48Z</time></trkpt><trkpt lat="51.8361917976" lon="-2.0737939887"><ele>231.33</ele><time>2017-09-13T10:12:16Z</time></trkpt><trkpt lat="51.8361936416" lon="-2.0737990178"><ele>231.33</ele><time>2017-09-13T10:12:45Z</time></trkpt><trkpt lat="51.8361940607" lon="-2.0737965871"><ele>230.85</ele><time>2017-09-13T10:13:13Z</time></trkpt><trkpt lat="51.8361963239" lon="-2.0737944078"><ele>230.85</ele><time>2017-09-13T10:13:44Z</time></trkpt><trkpt lat="51.8361963239" lon="-2.0737899654"><ele>231.33</ele><time>2017-09-13T10:14:14Z</time></trkpt><trkpt lat="51.8361929711" lon="-2.0737914741"><ele>230.85</ele><time>2017-09-13T10:14:48Z</time></trkpt><trkpt lat="51.8361806497" lon="-2.0737407636"><ele>229.89</ele><time>2017-09-13T10:15:13Z</time></trkpt><trkpt lat="51.8361663166" lon="-2.0737015363"><ele>228.93</ele><time>2017-09-13T10:15:32Z</time></trkpt><trkpt lat="51.8361766264" lon="-2.0737261791"><ele>228.45</ele><time>2017-09-13T10:15:55Z</time></trkpt><trkpt lat="51.8361681607" lon="-2.0737179648"><ele>229.89</ele><time>2017-09-13T10:16:10Z</time></trkpt><trkpt lat="51.8361705914" lon="-2.0737241674"><ele>229.41</ele><time>2017-09-13T10:16:34Z</time></trkpt><trkpt lat="51.8361534085" lon="-2.0737136062"><ele>228.93</ele><time>2017-09-13T10:16:57Z</time></trkpt><trkpt lat="51.8361091521" lon="-2.0737413503"><ele>229.89</ele><time>2017-09-13T10:17:13Z</time></trkpt><trkpt lat="51.8360873591" lon="-2.0737737883"><ele>228.45</ele><time>2017-09-13T10:17:26Z</time></trkpt><trkpt lat="51.8360815756" lon="-2.0737790689"><ele>228.93</ele><time>2017-09-13T10:17:40Z</time></trkpt><trkpt lat="51.8360775523" lon="-2.0737796556"><ele>228.93</ele><time>2017-09-13T10:17:48Z</time></trkpt><trkpt lat="51.8360559270" lon="-2.0738078188"><ele>228.45</ele><time>2017-09-13T10:17:50Z</time></trkpt><trkpt lat="51.8360193819" lon="-2.0738384966"><ele>229.41</ele><time>2017-09-13T10:18:06Z</time></trkpt><trkpt lat="51.8360146880" lon="-2.0738509018"><ele>228.93</ele><time>2017-09-13T10:18:15Z</time></trkpt><trkpt lat="51.8360032048" lon="-2.0738830883"><ele>229.41</ele><time>2017-09-13T10:18:17Z</time></trkpt><trkpt lat="51.8359588645" lon="-2.0739465393"><ele>229.89</ele><time>2017-09-13T10:18:22Z</time></trkpt><trkpt lat="51.8358568568" lon="-2.0741873514"><ele>228.93</ele><time>2017-09-13T10:18:36Z</time></trkpt><trkpt lat="51.8358512409" lon="-2.0741942246"><ele>228.93</ele><time>2017-09-13T10:18:37Z</time></trkpt><trkpt lat="51.8358514924" lon="-2.0742005948"><ele>225.57</ele><time>2017-09-13T10:18:39Z</time></trkpt><trkpt lat="51.8358518276" lon="-2.0742027741"><ele>234.22</ele><time>2017-09-13T10:18:40Z</time></trkpt><trkpt lat="51.8358516600" lon="-2.0742041152"><ele>222.20</ele><time>2017-09-13T10:18:41Z</time></trkpt><trkpt lat="51.8358516600" lon="-2.0742054563"><ele>228.93</ele><time>2017-09-13T10:18:42Z</time></trkpt><trkpt lat="51.8358484749" lon="-2.0742054563"><ele>239.02</ele><time>2017-09-13T10:18:54Z</time></trkpt><trkpt lat="51.8358401768" lon="-2.0742148440"><ele>230.85</ele><time>2017-09-13T10:18:55Z</time></trkpt><trkpt lat="51.8358289450" lon="-2.0742275845"><ele>229.41</ele><time>2017-09-13T10:18:56Z</time></trkpt><trkpt lat="51.8358138576" lon="-2.0742557477"><ele>229.41</ele><time>2017-09-13T10:18:58Z</time></trkpt><trkpt lat="51.8357093353" lon="-2.0745579153"><ele>229.89</ele><time>2017-09-13T10:19:13Z</time></trkpt><trkpt lat="51.8356114347" lon="-2.0748045109"><ele>227.97</ele><time>2017-09-13T10:19:28Z</time></trkpt><trkpt lat="51.8355448823" lon="-2.0750610810"><ele>226.53</ele><time>2017-09-13T10:19:41Z</time></trkpt><trkpt lat="51.8354639132" lon="-2.0753212553"><ele>224.61</ele><time>2017-09-13T10:19:55Z</time></trkpt><trkpt lat="51.8354047369" lon="-2.0755214989"><ele>224.12</ele><time>2017-09-13T10:20:14Z</time></trkpt><trkpt lat="51.8353843689" lon="-2.0755373407"><ele>225.09</ele><time>2017-09-13T10:20:27Z</time></trkpt><trkpt lat="51.8353523500" lon="-2.0755781606"><ele>224.12</ele><time>2017-09-13T10:20:33Z</time></trkpt><trkpt lat="51.8352407869" lon="-2.0756933279"><ele>225.09</ele><time>2017-09-13T10:20:47Z</time></trkpt><trkpt lat="51.8352380209" lon="-2.0757014584"><ele>225.57</ele><time>2017-09-13T10:20:48Z</time></trkpt><trkpt lat="51.8352119531" lon="-2.0757400151"><ele>226.05</ele><time>2017-09-13T10:20:53Z</time></trkpt><trkpt lat="51.8351346720" lon="-2.0758439507"><ele>226.53</ele><time>2017-09-13T10:21:07Z</time></trkpt><trkpt lat="51.8351083528" lon="-2.0758458786"><ele>226.53</ele><time>2017-09-13T10:21:10Z</time></trkpt><trkpt lat="51.8350583967" lon="-2.0759250876"><ele>226.53</ele><time>2017-09-13T10:21:23Z</time></trkpt><trkpt lat="51.8350474164" lon="-2.0759939868"><ele>226.53</ele><time>2017-09-13T10:21:28Z</time></trkpt><trkpt lat="51.8350190856" lon="-2.0760638081"><ele>226.05</ele><time>2017-09-13T10:21:33Z</time></trkpt><trkpt lat="51.8349608313" lon="-2.0761763770"><ele>226.05</ele><time>2017-09-13T10:21:42Z</time></trkpt><trkpt lat="51.8349021580" lon="-2.0763324481"><ele>225.09</ele><time>2017-09-13T10:21:56Z</time></trkpt><trkpt lat="51.8348792754" lon="-2.0764573384"><ele>226.05</ele><time>2017-09-13T10:22:08Z</time></trkpt><trkpt lat="51.8348708097" lon="-2.0764828194"><ele>226.53</ele><time>2017-09-13T10:22:10Z</time></trkpt><trkpt lat="51.8348116335" lon="-2.0766449254"><ele>226.53</ele><time>2017-09-13T10:22:25Z</time></trkpt><trkpt lat="51.8348035030" lon="-2.0766930375"><ele>224.12</ele><time>2017-09-13T10:22:38Z</time></trkpt><trkpt lat="51.8348007370" lon="-2.0766980667"><ele>227.49</ele><time>2017-09-13T10:22:39Z</time></trkpt><trkpt lat="51.8347974680" lon="-2.0767095499"><ele>226.53</ele><time>2017-09-13T10:22:41Z</time></trkpt><trkpt lat="51.8347513676" lon="-2.0768709015"><ele>225.09</ele><time>2017-09-13T10:22:52Z</time></trkpt><trkpt lat="51.8347463384" lon="-2.0768958796"><ele>225.57</ele><time>2017-09-13T10:22:55Z</time></trkpt><trkpt lat="51.8347538821" lon="-2.0769689698"><ele>224.61</ele><time>2017-09-13T10:23:08Z</time></trkpt><trkpt lat="51.8347263895" lon="-2.0770607516"><ele>224.61</ele><time>2017-09-13T10:23:23Z</time></trkpt><trkpt lat="51.8347252160" lon="-2.0770454127"><ele>225.09</ele><time>2017-09-13T10:23:28Z</time></trkpt><trkpt lat="51.8347362801" lon="-2.0770386234"><ele>225.57</ele><time>2017-09-13T10:23:38Z</time></trkpt><trkpt lat="51.8347103801" lon="-2.0770803653"><ele>226.53</ele><time>2017-09-13T10:23:43Z</time></trkpt><trkpt lat="51.8346698955" lon="-2.0771748293"><ele>224.61</ele><time>2017-09-13T10:23:55Z</time></trkpt><trkpt lat="51.8346579932" lon="-2.0772843808"><ele>225.09</ele><time>2017-09-13T10:24:10Z</time></trkpt><trkpt lat="51.8346221186" lon="-2.0774924196"><ele>225.57</ele><time>2017-09-13T10:24:27Z</time></trkpt><trkpt lat="51.8345885072" lon="-2.0776152983"><ele>226.05</ele><time>2017-09-13T10:24:40Z</time></trkpt><trkpt lat="51.8345751800" lon="-2.0777013805"><ele>225.09</ele><time>2017-09-13T10:24:46Z</time></trkpt><trkpt lat="51.8345423229" lon="-2.0778491534"><ele>225.57</ele><time>2017-09-13T10:25:00Z</time></trkpt><trkpt lat="51.8345166743" lon="-2.0779690985"><ele>224.61</ele><time>2017-09-13T10:25:09Z</time></trkpt><trkpt lat="51.8344716635" lon="-2.0781191345"><ele>225.57</ele><time>2017-09-13T10:25:22Z</time></trkpt><trkpt lat="51.8344660476" lon="-2.0781617146"><ele>224.61</ele><time>2017-09-13T10:25:25Z</time></trkpt><trkpt lat="51.8344528042" lon="-2.0782110002"><ele>226.53</ele><time>2017-09-13T10:25:28Z</time></trkpt><trkpt lat="51.8343667220" lon="-2.0783544146"><ele>226.05</ele><time>2017-09-13T10:25:41Z</time></trkpt><trkpt lat="51.8343583401" lon="-2.0783898700"><ele>224.61</ele><time>2017-09-13T10:25:45Z</time></trkpt><trkpt lat="51.8342928775" lon="-2.0784280077"><ele>227.01</ele><time>2017-09-13T10:25:55Z</time></trkpt><trkpt lat="51.8342468608" lon="-2.0784891956"><ele>225.09</ele><time>2017-09-13T10:26:07Z</time></trkpt><trkpt lat="51.8342272472" lon="-2.0785249863"><ele>226.05</ele><time>2017-09-13T10:26:20Z</time></trkpt><trkpt lat="51.8342207931" lon="-2.0785325300"><ele>225.57</ele><time>2017-09-13T10:26:43Z</time></trkpt><trkpt lat="51.8342274148" lon="-2.0785442647"><ele>225.57</ele><time>2017-09-13T10:27:06Z</time></trkpt><trkpt lat="51.8341973238" lon="-2.0785624534"><ele>226.53</ele><time>2017-09-13T10:27:18Z</time></trkpt><trkpt lat="51.8341774587" lon="-2.0785688236"><ele>227.01</ele><time>2017-09-13T10:27:20Z</time></trkpt><trkpt lat="51.8341259938" lon="-2.0785580948"><ele>227.49</ele><time>2017-09-13T10:27:26Z</time></trkpt><trkpt lat="51.8341090623" lon="-2.0785788819"><ele>226.05</ele><time>2017-09-13T10:27:28Z</time></trkpt><trkpt lat="51.8340628780" lon="-2.0785585139"><ele>227.97</ele><time>2017-09-13T10:27:35Z</time></trkpt><trkpt lat="51.8340052944" lon="-2.0785508864"><ele>227.97</ele><time>2017-09-13T10:27:48Z</time></trkpt><trkpt lat="51.8339787237" lon="-2.0785694104"><ele>226.05</ele><time>2017-09-13T10:27:59Z</time></trkpt><trkpt lat="51.8339106627" lon="-2.0786048658"><ele>228.45</ele><time>2017-09-13T10:28:10Z</time></trkpt><trkpt lat="51.8339017779" lon="-2.0786091406"><ele>227.97</ele><time>2017-09-13T10:28:11Z</time></trkpt><trkpt lat="51.8338568509" lon="-2.0786382258"><ele>228.93</ele><time>2017-09-13T10:28:16Z</time></trkpt><trkpt lat="51.8338375725" lon="-2.0786943007"><ele>228.45</ele><time>2017-09-13T10:28:20Z</time></trkpt><trkpt lat="51.8338143546" lon="-2.0787068736"><ele>228.93</ele><time>2017-09-13T10:28:23Z</time></trkpt><trkpt lat="51.8337390013" lon="-2.0786943845"><ele>230.37</ele><time>2017-09-13T10:28:35Z</time></trkpt><trkpt lat="51.8336971756" lon="-2.0787015092"><ele>231.81</ele><time>2017-09-13T10:28:48Z</time></trkpt><trkpt lat="51.8336289469" lon="-2.0787388086"><ele>233.74</ele><time>2017-09-13T10:29:01Z</time></trkpt><trkpt lat="51.8335753027" lon="-2.0788056962"><ele>233.26</ele><time>2017-09-13T10:29:10Z</time></trkpt><trkpt lat="51.8335361592" lon="-2.0788691472"><ele>234.70</ele><time>2017-09-13T10:29:23Z</time></trkpt><trkpt lat="51.8334407732" lon="-2.0790010784"><ele>234.70</ele><time>2017-09-13T10:29:39Z</time></trkpt><trkpt lat="51.8334404379" lon="-2.0790202729"><ele>234.70</ele><time>2017-09-13T10:29:56Z</time></trkpt><trkpt lat="51.8334846944" lon="-2.0789807104"><ele>234.70</ele><time>2017-09-13T10:30:10Z</time></trkpt><trkpt lat="51.8334283680" lon="-2.0790443290"><ele>234.70</ele><time>2017-09-13T10:30:28Z</time></trkpt><trkpt lat="51.8334015459" lon="-2.0790983923"><ele>233.74</ele><time>2017-09-13T10:30:44Z</time></trkpt><trkpt lat="51.8333817646" lon="-2.0791848097"><ele>232.78</ele><time>2017-09-13T10:31:00Z</time></trkpt><trkpt lat="51.8333444651" lon="-2.0792783517"><ele>233.26</ele><time>2017-09-13T10:31:14Z</time></trkpt><trkpt lat="51.8332952634" lon="-2.0793185849"><ele>234.22</ele><time>2017-09-13T10:31:30Z</time></trkpt><trkpt lat="51.8332231790" lon="-2.0793379471"><ele>235.66</ele><time>2017-09-13T10:31:44Z</time></trkpt><trkpt lat="51.8331961893" lon="-2.0793198422"><ele>237.10</ele><time>2017-09-13T10:31:49Z</time></trkpt><trkpt lat="51.8331466522" lon="-2.0793243684"><ele>236.62</ele><time>2017-09-13T10:31:58Z</time></trkpt><trkpt lat="51.8330548704" lon="-2.0793751627"><ele>237.58</ele><time>2017-09-13T10:32:11Z</time></trkpt><trkpt lat="51.8330169842" lon="-2.0793935191"><ele>236.62</ele><time>2017-09-13T10:32:17Z</time></trkpt><trkpt lat="51.8329403736" lon="-2.0794629212"><ele>238.54</ele><time>2017-09-13T10:32:30Z</time></trkpt><trkpt lat="51.8329219334" lon="-2.0794788469"><ele>237.10</ele><time>2017-09-13T10:32:43Z</time></trkpt><trkpt lat="51.8328654394" lon="-2.0794882346"><ele>238.06</ele><time>2017-09-13T10:32:53Z</time></trkpt><trkpt lat="51.8328489270" lon="-2.0794789307"><ele>239.02</ele><time>2017-09-13T10:33:09Z</time></trkpt><trkpt lat="51.8328115437" lon="-2.0795277134"><ele>238.54</ele><time>2017-09-13T10:33:16Z</time></trkpt><trkpt lat="51.8327812850" lon="-2.0795500930"><ele>239.02</ele><time>2017-09-13T10:33:20Z</time></trkpt><trkpt lat="51.8327555526" lon="-2.0795992948"><ele>239.99</ele><time>2017-09-13T10:33:24Z</time></trkpt><trkpt lat="51.8327090330" lon="-2.0797382668"><ele>239.02</ele><time>2017-09-13T10:33:38Z</time></trkpt><trkpt lat="51.8326497730" lon="-2.0797551144"><ele>242.39</ele><time>2017-09-13T10:33:54Z</time></trkpt><trkpt lat="51.8325481005" lon="-2.0798009634"><ele>242.39</ele><time>2017-09-13T10:34:08Z</time></trkpt><trkpt lat="51.8325380422" lon="-2.0798058249"><ele>241.91</ele><time>2017-09-13T10:34:10Z</time></trkpt><trkpt lat="51.8324308377" lon="-2.0798384305"><ele>243.83</ele><time>2017-09-13T10:34:25Z</time></trkpt><trkpt lat="51.8323904369" lon="-2.0798635762"><ele>244.79</ele><time>2017-09-13T10:34:31Z</time></trkpt><trkpt lat="51.8322849926" lon="-2.0798952598"><ele>246.23</ele><time>2017-09-13T10:34:45Z</time></trkpt><trkpt lat="51.8322445918" lon="-2.0799426176"><ele>245.75</ele><time>2017-09-13T10:35:00Z</time></trkpt><trkpt lat="51.8321924563" lon="-2.0799762290"><ele>245.75</ele><time>2017-09-13T10:35:14Z</time></trkpt><trkpt lat="51.8321649637" lon="-2.0799910650"><ele>247.68</ele><time>2017-09-13T10:35:17Z</time></trkpt><trkpt lat="51.8321260717" lon="-2.0800352376"><ele>247.20</ele><time>2017-09-13T10:35:24Z</time></trkpt><trkpt lat="51.8320414145" lon="-2.0800971799"><ele>248.64</ele><time>2017-09-13T10:35:38Z</time></trkpt><trkpt lat="51.8319990020" lon="-2.0801091660"><ele>248.64</ele><time>2017-09-13T10:35:48Z</time></trkpt><trkpt lat="51.8318736926" lon="-2.0801193081"><ele>252.00</ele><time>2017-09-13T10:36:02Z</time></trkpt><trkpt lat="51.8318003509" lon="-2.0802179631"><ele>253.93</ele><time>2017-09-13T10:36:14Z</time></trkpt><trkpt lat="51.8317100778" lon="-2.0803050511"><ele>254.89</ele><time>2017-09-13T10:36:29Z</time></trkpt><trkpt lat="51.8316756282" lon="-2.0803593658"><ele>256.33</ele><time>2017-09-13T10:36:36Z</time></trkpt><trkpt lat="51.8315917253" lon="-2.0804385748"><ele>257.29</ele><time>2017-09-13T10:36:55Z</time></trkpt><trkpt lat="51.8315618858" lon="-2.0805312786"><ele>259.69</ele><time>2017-09-13T10:37:08Z</time></trkpt><trkpt lat="51.8314962555" lon="-2.0805817377"><ele>261.14</ele><time>2017-09-13T10:37:19Z</time></trkpt><trkpt lat="51.8314680923" lon="-2.0806586836"><ele>262.58</ele><time>2017-09-13T10:37:30Z</time></trkpt><trkpt lat="51.8314146157" lon="-2.0807728451"><ele>262.58</ele><time>2017-09-13T10:37:46Z</time></trkpt><trkpt lat="51.8313367479" lon="-2.0808644593"><ele>264.02</ele><time>2017-09-13T10:38:01Z</time></trkpt><trkpt lat="51.8313176371" lon="-2.0808682311"><ele>265.46</ele><time>2017-09-13T10:38:20Z</time></trkpt><trkpt lat="51.8313185591" lon="-2.0808690693"><ele>265.46</ele><time>2017-09-13T10:38:44Z</time></trkpt><trkpt lat="51.8313214928" lon="-2.0808779541"><ele>265.94</ele><time>2017-09-13T10:39:11Z</time></trkpt><trkpt lat="51.8313231692" lon="-2.0808800496"><ele>264.98</ele><time>2017-09-13T10:39:30Z</time></trkpt><trkpt lat="51.8313252646" lon="-2.0808904432"><ele>265.94</ele><time>2017-09-13T10:39:52Z</time></trkpt><trkpt lat="51.8313230854" lon="-2.0808935445"><ele>265.94</ele><time>2017-09-13T10:40:19Z</time></trkpt><trkpt lat="51.8313143682" lon="-2.0808848273"><ele>265.94</ele><time>2017-09-13T10:40:39Z</time></trkpt><trkpt lat="51.8313135300" lon="-2.0809053630"><ele>265.94</ele><time>2017-09-13T10:40:59Z</time></trkpt><trkpt lat="51.8313167151" lon="-2.0809236355"><ele>265.94</ele><time>2017-09-13T10:41:18Z</time></trkpt><trkpt lat="51.8313173857" lon="-2.0809378847"><ele>266.90</ele><time>2017-09-13T10:41:45Z</time></trkpt><trkpt lat="51.8312748056" lon="-2.0809615217"><ele>266.90</ele><time>2017-09-13T10:41:59Z</time></trkpt><trkpt lat="51.8312572036" lon="-2.0810153335"><ele>266.90</ele><time>2017-09-13T10:42:11Z</time></trkpt><trkpt lat="51.8312413618" lon="-2.0810979791"><ele>268.35</ele><time>2017-09-13T10:42:20Z</time></trkpt><trkpt lat="51.8312349916" lon="-2.0811192691"><ele>264.98</ele><time>2017-09-13T10:42:30Z</time></trkpt><trkpt lat="51.8312387634" lon="-2.0811046846"><ele>271.71</ele><time>2017-09-13T10:42:31Z</time></trkpt><trkpt lat="51.8312401045" lon="-2.0811012480"><ele>267.38</ele><time>2017-09-13T10:42:32Z</time></trkpt><trkpt lat="51.8312427867" lon="-2.0810784493"><ele>265.46</ele><time>2017-09-13T10:42:34Z</time></trkpt><trkpt lat="51.8312414456" lon="-2.0810626075"><ele>267.38</ele><time>2017-09-13T10:42:35Z</time></trkpt><trkpt lat="51.8312365841" lon="-2.0810155012"><ele>267.86</ele><time>2017-09-13T10:42:38Z</time></trkpt><trkpt lat="51.8312300462" lon="-2.0808577538"><ele>266.42</ele><time>2017-09-13T10:42:46Z</time></trkpt><trkpt lat="51.8311394379" lon="-2.0805969089"><ele>269.31</ele><time>2017-09-13T10:43:01Z</time></trkpt><trkpt lat="51.8310726341" lon="-2.0803380758"><ele>270.27</ele><time>2017-09-13T10:43:16Z</time></trkpt><trkpt lat="51.8310197443" lon="-2.0801297016"><ele>271.23</ele><time>2017-09-13T10:43:29Z</time></trkpt><trkpt lat="51.8309578020" lon="-2.0799519215"><ele>271.23</ele><time>2017-09-13T10:43:41Z</time></trkpt><trkpt lat="51.8309145514" lon="-2.0798157994"><ele>270.27</ele><time>2017-09-13T10:43:51Z</time></trkpt><trkpt lat="51.8308975361" lon="-2.0797178149"><ele>273.15</ele><time>2017-09-13T10:43:58Z</time></trkpt><trkpt lat="51.8308575545" lon="-2.0796216745"><ele>270.27</ele><time>2017-09-13T10:44:06Z</time></trkpt><trkpt lat="51.8308472447" lon="-2.0796213392"><ele>271.23</ele><time>2017-09-13T10:44:07Z</time></trkpt><trkpt lat="51.8308005575" lon="-2.0796539448"><ele>271.71</ele><time>2017-09-13T10:44:19Z</time></trkpt><trkpt lat="51.8308313191" lon="-2.0796222612"><ele>271.71</ele><time>2017-09-13T10:44:22Z</time></trkpt><trkpt lat="51.8308654334" lon="-2.0795391127"><ele>271.71</ele><time>2017-09-13T10:44:27Z</time></trkpt><trkpt lat="51.8308660202" lon="-2.0795085188"><ele>270.27</ele><time>2017-09-13T10:44:29Z</time></trkpt><trkpt lat="51.8308233563" lon="-2.0792904217"><ele>273.63</ele><time>2017-09-13T10:44:39Z</time></trkpt><trkpt lat="51.8308189139" lon="-2.0792414714"><ele>270.75</ele><time>2017-09-13T10:44:42Z</time></trkpt><trkpt lat="51.8307632580" lon="-2.0789761841"><ele>271.23</ele><time>2017-09-13T10:44:55Z</time></trkpt><trkpt lat="51.8307596538" lon="-2.0789061114"><ele>272.19</ele><time>2017-09-13T10:44:59Z</time></trkpt><trkpt lat="51.8307254557" lon="-2.0787212905"><ele>271.23</ele><time>2017-09-13T10:45:09Z</time></trkpt><trkpt lat="51.8307012320" lon="-2.0785800554"><ele>274.11</ele><time>2017-09-13T10:45:16Z</time></trkpt><trkpt lat="51.8306708895" lon="-2.0784190390"><ele>273.15</ele><time>2017-09-13T10:45:23Z</time></trkpt><trkpt lat="51.8306549639" lon="-2.0783664007"><ele>274.11</ele><time>2017-09-13T10:45:26Z</time></trkpt><trkpt lat="51.8306174129" lon="-2.0780851878"><ele>274.59</ele><time>2017-09-13T10:45:38Z</time></trkpt><trkpt lat="51.8305709772" lon="-2.0778390951"><ele>277.00</ele><time>2017-09-13T10:45:51Z</time></trkpt><trkpt lat="51.8305351865" lon="-2.0776303858"><ele>277.48</ele><time>2017-09-13T10:46:06Z</time></trkpt><trkpt lat="51.8304989766" lon="-2.0773776714"><ele>278.44</ele><time>2017-09-13T10:46:24Z</time></trkpt><trkpt lat="51.8304747529" lon="-2.0772192534"><ele>278.44</ele><time>2017-09-13T10:46:35Z</time></trkpt><trkpt lat="51.8304486852" lon="-2.0770742465"><ele>277.48</ele><time>2017-09-13T10:46:45Z</time></trkpt><trkpt lat="51.8304316700" lon="-2.0769341011"><ele>278.92</ele><time>2017-09-13T10:46:58Z</time></trkpt><trkpt lat="51.8304293230" lon="-2.0767475199"><ele>278.92</ele><time>2017-09-13T10:47:12Z</time></trkpt><trkpt lat="51.8304293230" lon="-2.0766584203"><ele>279.88</ele><time>2017-09-13T10:47:18Z</time></trkpt><trkpt lat="51.8304172531" lon="-2.0764613617"><ele>279.40</ele><time>2017-09-13T10:47:33Z</time></trkpt><trkpt lat="51.8304202706" lon="-2.0763960667"><ele>279.40</ele><time>2017-09-13T10:47:37Z</time></trkpt><trkpt lat="51.8304151576" lon="-2.0760897081"><ele>280.36</ele><time>2017-09-13T10:47:54Z</time></trkpt><trkpt lat="51.8304061051" lon="-2.0758602954"><ele>280.36</ele><time>2017-09-13T10:48:08Z</time></trkpt><trkpt lat="51.8303957954" lon="-2.0756414440"><ele>280.36</ele><time>2017-09-13T10:48:21Z</time></trkpt><trkpt lat="51.8303938676" lon="-2.0753862988"><ele>280.84</ele><time>2017-09-13T10:48:36Z</time></trkpt><trkpt lat="51.8303795345" lon="-2.0752004720"><ele>280.84</ele><time>2017-09-13T10:48:48Z</time></trkpt><trkpt lat="51.8303781096" lon="-2.0751656033"><ele>281.80</ele><time>2017-09-13T10:48:50Z</time></trkpt><trkpt lat="51.8303631898" lon="-2.0749876555"><ele>281.80</ele><time>2017-09-13T10:49:05Z</time></trkpt><trkpt lat="51.8303667940" lon="-2.0748372003"><ele>281.80</ele><time>2017-09-13T10:49:20Z</time></trkpt><trkpt lat="51.8303711526" lon="-2.0745896827"><ele>282.28</ele><time>2017-09-13T10:49:36Z</time></trkpt><trkpt lat="51.8303607590" lon="-2.0743371360"><ele>281.80</ele><time>2017-09-13T10:49:51Z</time></trkpt><trkpt lat="51.8303604238" lon="-2.0742063783"><ele>280.84</ele><time>2017-09-13T10:50:00Z</time></trkpt><trkpt lat="51.8303764332" lon="-2.0740633830"><ele>282.28</ele><time>2017-09-13T10:50:08Z</time></trkpt><trkpt lat="51.8303817976" lon="-2.0740178693"><ele>280.84</ele><time>2017-09-13T10:50:11Z</time></trkpt><trkpt lat="51.8303918559" lon="-2.0737685077"><ele>281.80</ele><time>2017-09-13T10:50:26Z</time></trkpt><trkpt lat="51.8303957954" lon="-2.0735582057"><ele>282.77</ele><time>2017-09-13T10:50:40Z</time></trkpt><trkpt lat="51.8303955439" lon="-2.0735133626"><ele>281.32</ele><time>2017-09-13T10:50:42Z</time></trkpt><trkpt lat="51.8303938676" lon="-2.0732716285"><ele>281.80</ele><time>2017-09-13T10:50:55Z</time></trkpt><trkpt lat="51.8303885031" lon="-2.0731427986"><ele>281.80</ele><time>2017-09-13T10:51:10Z</time></trkpt><trkpt lat="51.8303940352" lon="-2.0731184073"><ele>281.80</ele><time>2017-09-13T10:51:17Z</time></trkpt><trkpt lat="51.8303900119" lon="-2.0729568880"><ele>281.32</ele><time>2017-09-13T10:51:31Z</time></trkpt><trkpt lat="51.8303901795" lon="-2.0729547925"><ele>282.28</ele><time>2017-09-13T10:51:32Z</time></trkpt><trkpt lat="51.8303868268" lon="-2.0727692172"><ele>281.32</ele><time>2017-09-13T10:51:47Z</time></trkpt><trkpt lat="51.8303916883" lon="-2.0726659521"><ele>280.84</ele><time>2017-09-13T10:52:00Z</time></trkpt><trkpt lat="51.8303928617" lon="-2.0725611784"><ele>280.84</ele><time>2017-09-13T10:52:07Z</time></trkpt><trkpt lat="51.8304032553" lon="-2.0724818856"><ele>279.88</ele><time>2017-09-13T10:52:12Z</time></trkpt><trkpt lat="51.8304068595" lon="-2.0723739266"><ele>280.84</ele><time>2017-09-13T10:52:17Z</time></trkpt><trkpt lat="51.8304159120" lon="-2.0720957313"><ele>280.36</ele><time>2017-09-13T10:52:31Z</time></trkpt><trkpt lat="51.8304657005" lon="-2.0718152728"><ele>279.40</ele><time>2017-09-13T10:52:48Z</time></trkpt><trkpt lat="51.8304994795" lon="-2.0715903025"><ele>278.44</ele><time>2017-09-13T10:53:02Z</time></trkpt><trkpt lat="51.8305233680" lon="-2.0714220777"><ele>279.40</ele><time>2017-09-13T10:53:12Z</time></trkpt><trkpt lat="51.8305639364" lon="-2.0711894799"><ele>277.96</ele><time>2017-09-13T10:53:30Z</time></trkpt><trkpt lat="51.8305881601" lon="-2.0709523559"><ele>275.07</ele><time>2017-09-13T10:53:45Z</time></trkpt><trkpt lat="51.8306509405" lon="-2.0706691314"><ele>275.07</ele><time>2017-09-13T10:54:03Z</time></trkpt><trkpt lat="51.8306672014" lon="-2.0705584902"><ele>274.11</ele><time>2017-09-13T10:54:22Z</time></trkpt><trkpt lat="51.8306786008" lon="-2.0704013295"><ele>273.15</ele><time>2017-09-13T10:54:33Z</time></trkpt><trkpt lat="51.8306770921" lon="-2.0703399740"><ele>268.35</ele><time>2017-09-13T10:54:38Z</time></trkpt><trkpt lat="51.8306779303" lon="-2.0703378785"><ele>273.15</ele><time>2017-09-13T10:54:39Z</time></trkpt><trkpt lat="51.8306762539" lon="-2.0703342743"><ele>279.88</ele><time>2017-09-13T10:54:40Z</time></trkpt><trkpt lat="51.8306747451" lon="-2.0703309216"><ele>266.90</ele><time>2017-09-13T10:54:41Z</time></trkpt><trkpt lat="51.8306736555" lon="-2.0703282394"><ele>272.67</ele><time>2017-09-13T10:54:42Z</time></trkpt><trkpt lat="51.8306739070" lon="-2.0703281555"><ele>280.36</ele><time>2017-09-13T10:54:43Z</time></trkpt><trkpt lat="51.8306742422" lon="-2.0703267306"><ele>273.63</ele><time>2017-09-13T10:54:44Z</time></trkpt><trkpt lat="51.8306811154" lon="-2.0703127328"><ele>272.67</ele><time>2017-09-13T10:54:46Z</time></trkpt><trkpt lat="51.8306881562" lon="-2.0702665485"><ele>265.94</ele><time>2017-09-13T10:54:49Z</time></trkpt><trkpt lat="51.8306879047" lon="-2.0702603459"><ele>271.23</ele><time>2017-09-13T10:54:50Z</time></trkpt><trkpt lat="51.8306880724" lon="-2.0702575799"><ele>277.00</ele><time>2017-09-13T10:54:52Z</time></trkpt><trkpt lat="51.8306894135" lon="-2.0702502038"><ele>273.15</ele><time>2017-09-13T10:54:53Z</time></trkpt><trkpt lat="51.8306925148" lon="-2.0701914467"><ele>272.19</ele><time>2017-09-13T10:55:03Z</time></trkpt><trkpt lat="51.8306999747" lon="-2.0700254012"><ele>270.27</ele><time>2017-09-13T10:55:19Z</time></trkpt><trkpt lat="51.8307172414" lon="-2.0698799752"><ele>271.23</ele><time>2017-09-13T10:55:29Z</time></trkpt><trkpt lat="51.8307367712" lon="-2.0698166918"><ele>270.75</ele><time>2017-09-13T10:55:34Z</time></trkpt><trkpt lat="51.8307436444" lon="-2.0697669033"><ele>269.79</ele><time>2017-09-13T10:55:37Z</time></trkpt><trkpt lat="51.8307765853" lon="-2.0696073957"><ele>269.31</ele><time>2017-09-13T10:55:55Z</time></trkpt><trkpt lat="51.8307857215" lon="-2.0695414301"><ele>268.35</ele><time>2017-09-13T10:56:20Z</time></trkpt><trkpt lat="51.8308226857" lon="-2.0693684276"><ele>268.35</ele><time>2017-09-13T10:56:33Z</time></trkpt><trkpt lat="51.8308240268" lon="-2.0693548489"><ele>268.35</ele><time>2017-09-13T10:56:34Z</time></trkpt><trkpt lat="51.8308692891" lon="-2.0690828562"><ele>266.42</ele><time>2017-09-13T10:56:50Z</time></trkpt><trkpt lat="51.8309164792" lon="-2.0688407868"><ele>265.46</ele><time>2017-09-13T10:57:05Z</time></trkpt><trkpt lat="51.8309535272" lon="-2.0685761701"><ele>263.06</ele><time>2017-09-13T10:57:21Z</time></trkpt><trkpt lat="51.8309816066" lon="-2.0683066919"><ele>261.62</ele><time>2017-09-13T10:57:41Z</time></trkpt><trkpt lat="51.8309995439" lon="-2.0680121519"><ele>259.69</ele><time>2017-09-13T10:57:58Z</time></trkpt><trkpt lat="51.8310097698" lon="-2.0678649656"><ele>258.25</ele><time>2017-09-13T10:58:16Z</time></trkpt><trkpt lat="51.8310483266" lon="-2.0674446132"><ele>256.33</ele><time>2017-09-13T10:58:34Z</time></trkpt><trkpt lat="51.8310754001" lon="-2.0671874564"><ele>254.89</ele><time>2017-09-13T10:58:51Z</time></trkpt><trkpt lat="51.8311176449" lon="-2.0669044834"><ele>252.96</ele><time>2017-09-13T10:59:09Z</time></trkpt><trkpt lat="51.8311310560" lon="-2.0667547826"><ele>251.52</ele><time>2017-09-13T10:59:18Z</time></trkpt><trkpt lat="51.8311362527" lon="-2.0667259488"><ele>252.00</ele><time>2017-09-13T10:59:20Z</time></trkpt><trkpt lat="51.8311479036" lon="-2.0666661859"><ele>251.52</ele><time>2017-09-13T10:59:24Z</time></trkpt><trkpt lat="51.8311782461" lon="-2.0665095281"><ele>249.60</ele><time>2017-09-13T10:59:36Z</time></trkpt><trkpt lat="51.8312359136" lon="-2.0662151556"><ele>246.72</ele><time>2017-09-13T10:59:56Z</time></trkpt><trkpt lat="51.8312618975" lon="-2.0661243796"><ele>246.23</ele><time>2017-09-13T11:00:02Z</time></trkpt><trkpt lat="51.8313411903" lon="-2.0659760199"><ele>245.27</ele><time>2017-09-13T11:00:12Z</time></trkpt><trkpt lat="51.8313719518" lon="-2.0658150874"><ele>243.83</ele><time>2017-09-13T11:00:25Z</time></trkpt><trkpt lat="51.8314390071" lon="-2.0655564219"><ele>241.91</ele><time>2017-09-13T11:00:43Z</time></trkpt><trkpt lat="51.8314760551" lon="-2.0653359778"><ele>239.02</ele><time>2017-09-13T11:00:58Z</time></trkpt><trkpt lat="51.8314801622" lon="-2.0653203875"><ele>239.02</ele><time>2017-09-13T11:00:59Z</time></trkpt><trkpt lat="51.8315212335" lon="-2.0651260111"><ele>239.02</ele><time>2017-09-13T11:01:14Z</time></trkpt><trkpt lat="51.8315252569" lon="-2.0648880489"><ele>236.62</ele><time>2017-09-13T11:01:28Z</time></trkpt><trkpt lat="51.8315539230" lon="-2.0646877214"><ele>236.14</ele><time>2017-09-13T11:01:40Z</time></trkpt><trkpt lat="51.8315931503" lon="-2.0644223504"><ele>235.66</ele><time>2017-09-13T11:01:57Z</time></trkpt><trkpt lat="51.8315928150" lon="-2.0644132979"><ele>235.66</ele><time>2017-09-13T11:01:58Z</time></trkpt><trkpt lat="51.8315738719" lon="-2.0642006490"><ele>232.30</ele><time>2017-09-13T11:02:13Z</time></trkpt><trkpt lat="51.8315923121" lon="-2.0640235394"><ele>232.78</ele><time>2017-09-13T11:02:29Z</time></trkpt><trkpt lat="51.8315868638" lon="-2.0639793668"><ele>232.78</ele><time>2017-09-13T11:02:42Z</time></trkpt><trkpt lat="51.8315814156" lon="-2.0639223699"><ele>232.78</ele><time>2017-09-13T11:03:05Z</time></trkpt><trkpt lat="51.8315664120" lon="-2.0638681389"><ele>232.30</ele><time>2017-09-13T11:03:23Z</time></trkpt><trkpt lat="51.8315636460" lon="-2.0638550632"><ele>232.30</ele><time>2017-09-13T11:03:47Z</time></trkpt><trkpt lat="51.8315230776" lon="-2.0638004970"><ele>232.30</ele><time>2017-09-13T11:04:01Z</time></trkpt><trkpt lat="51.8314276915" lon="-2.0636342838"><ele>232.78</ele><time>2017-09-13T11:04:17Z</time></trkpt><trkpt lat="51.8313947506" lon="-2.0635746885"><ele>232.78</ele><time>2017-09-13T11:04:21Z</time></trkpt><trkpt lat="51.8313062377" lon="-2.0633482933"><ele>233.26</ele><time>2017-09-13T11:04:37Z</time></trkpt><trkpt lat="51.8312249333" lon="-2.0632203855"><ele>233.26</ele><time>2017-09-13T11:04:51Z</time></trkpt><trkpt lat="51.8311720435" lon="-2.0631042123"><ele>231.81</ele><time>2017-09-13T11:05:08Z</time></trkpt><trkpt lat="51.8311463110" lon="-2.0630702656"><ele>231.81</ele><time>2017-09-13T11:05:17Z</time></trkpt><trkpt lat="51.8310848717" lon="-2.0629696827"><ele>231.33</ele><time>2017-09-13T11:05:28Z</time></trkpt><trkpt lat="51.8310670182" lon="-2.0629591215"><ele>232.30</ele><time>2017-09-13T11:05:30Z</time></trkpt><trkpt lat="51.8310000468" lon="-2.0628680103"><ele>232.78</ele><time>2017-09-13T11:05:43Z</time></trkpt><trkpt lat="51.8309799302" lon="-2.0628338959"><ele>231.33</ele><time>2017-09-13T11:05:46Z</time></trkpt><trkpt lat="51.8308946863" lon="-2.0626473986"><ele>231.81</ele><time>2017-09-13T11:06:00Z</time></trkpt><trkpt lat="51.8307947740" lon="-2.0624666009"><ele>230.85</ele><time>2017-09-13T11:06:18Z</time></trkpt><trkpt lat="51.8306915928" lon="-2.0622902457"><ele>230.85</ele><time>2017-09-13T11:06:33Z</time></trkpt><trkpt lat="51.8306677043" lon="-2.0622517727"><ele>230.85</ele><time>2017-09-13T11:06:48Z</time></trkpt><trkpt lat="51.8306593224" lon="-2.0622142218"><ele>229.41</ele><time>2017-09-13T11:06:57Z</time></trkpt><trkpt lat="51.8306285609" lon="-2.0620816201"><ele>229.89</ele><time>2017-09-13T11:07:12Z</time></trkpt><trkpt lat="51.8306254596" lon="-2.0620008186"><ele>229.89</ele><time>2017-09-13T11:07:27Z</time></trkpt><trkpt lat="51.8306371104" lon="-2.0619847253"><ele>229.41</ele><time>2017-09-13T11:08:02Z</time></trkpt><trkpt lat="51.8306485098" lon="-2.0619345177"><ele>228.93</ele><time>2017-09-13T11:08:39Z</time></trkpt><trkpt lat="51.8306225259" lon="-2.0617130678"><ele>227.97</ele><time>2017-09-13T11:08:51Z</time></trkpt><trkpt lat="51.8306060135" lon="-2.0616836473"><ele>227.49</ele><time>2017-09-13T11:08:53Z</time></trkpt><trkpt lat="51.8304100446" lon="-2.0614197850"><ele>225.57</ele><time>2017-09-13T11:09:09Z</time></trkpt><trkpt lat="51.8303656206" lon="-2.0613662247"><ele>226.53</ele><time>2017-09-13T11:09:24Z</time></trkpt><trkpt lat="51.8302525487" lon="-2.0612632949"><ele>226.53</ele><time>2017-09-13T11:09:39Z</time></trkpt><trkpt lat="51.8302279059" lon="-2.0612380654"><ele>226.53</ele><time>2017-09-13T11:09:42Z</time></trkpt><trkpt lat="51.8302167580" lon="-2.0612232294"><ele>227.49</ele><time>2017-09-13T11:09:44Z</time></trkpt><trkpt lat="51.8301652931" lon="-2.0611266699"><ele>227.01</ele><time>2017-09-13T11:09:53Z</time></trkpt><trkpt lat="51.8301668018" lon="-2.0610629674"><ele>227.01</ele><time>2017-09-13T11:10:00Z</time></trkpt><trkpt lat="51.8301825598" lon="-2.0608154498"><ele>224.61</ele><time>2017-09-13T11:10:15Z</time></trkpt><trkpt lat="51.8301605992" lon="-2.0605346560"><ele>226.05</ele><time>2017-09-13T11:10:30Z</time></trkpt><trkpt lat="51.8301433325" lon="-2.0603227615"><ele>222.68</ele><time>2017-09-13T11:10:42Z</time></trkpt><trkpt lat="51.8301466852" lon="-2.0602780022"><ele>223.64</ele><time>2017-09-13T11:10:50Z</time></trkpt><trkpt lat="51.8301518820" lon="-2.0602319855"><ele>223.16</ele><time>2017-09-13T11:10:54Z</time></trkpt><trkpt lat="51.8301472720" lon="-2.0601991285"><ele>222.68</ele><time>2017-09-13T11:10:56Z</time></trkpt><trkpt lat="51.8301021773" lon="-2.0598737430"><ele>222.68</ele><time>2017-09-13T11:11:14Z</time></trkpt><trkpt lat="51.8300403189" lon="-2.0595305879"><ele>222.68</ele><time>2017-09-13T11:11:31Z</time></trkpt><trkpt lat="51.8299837410" lon="-2.0593573339"><ele>221.24</ele><time>2017-09-13T11:11:39Z</time></trkpt><trkpt lat="51.8299399037" lon="-2.0591456071"><ele>220.76</ele><time>2017-09-13T11:11:50Z</time></trkpt><trkpt lat="51.8298961502" lon="-2.0589658991"><ele>220.28</ele><time>2017-09-13T11:11:59Z</time></trkpt><trkpt lat="51.8298730999" lon="-2.0588534139"><ele>221.72</ele><time>2017-09-13T11:12:04Z</time></trkpt><trkpt lat="51.8298320286" lon="-2.0585587900"><ele>218.36</ele><time>2017-09-13T11:12:16Z</time></trkpt><trkpt lat="51.8298653048" lon="-2.0583624020"><ele>217.88</ele><time>2017-09-13T11:12:32Z</time></trkpt><trkpt lat="51.8298759498" lon="-2.0582123660"><ele>216.43</ele><time>2017-09-13T11:12:49Z</time></trkpt><trkpt lat="51.8299029395" lon="-2.0581289660"><ele>214.99</ele><time>2017-09-13T11:13:03Z</time></trkpt><trkpt lat="51.8299088906" lon="-2.0578807779"><ele>213.55</ele><time>2017-09-13T11:13:20Z</time></trkpt><trkpt lat="51.8299196195" lon="-2.0577682927"><ele>212.59</ele><time>2017-09-13T11:13:28Z</time></trkpt><trkpt lat="51.8299786281" lon="-2.0575501956"><ele>211.15</ele><time>2017-09-13T11:13:44Z</time></trkpt><trkpt lat="51.8300008401" lon="-2.0573381335"><ele>209.70</ele><time>2017-09-13T11:14:01Z</time></trkpt><trkpt lat="51.8300031032" lon="-2.0573330205"><ele>209.22</ele><time>2017-09-13T11:14:18Z</time></trkpt><trkpt lat="51.8300333619" lon="-2.0571815595"><ele>208.74</ele><time>2017-09-13T11:14:33Z</time></trkpt><trkpt lat="51.8301043566" lon="-2.0570254885"><ele>207.30</ele><time>2017-09-13T11:14:45Z</time></trkpt><trkpt lat="51.8301830627" lon="-2.0568317827"><ele>205.38</ele><time>2017-09-13T11:15:01Z</time></trkpt><trkpt lat="51.8302449211" lon="-2.0566471294"><ele>203.94</ele><time>2017-09-13T11:15:18Z</time></trkpt><trkpt lat="51.8302845675" lon="-2.0565343089"><ele>201.53</ele><time>2017-09-13T11:15:32Z</time></trkpt><trkpt lat="51.8303843122" lon="-2.0563953370"><ele>201.05</ele><time>2017-09-13T11:15:46Z</time></trkpt><trkpt lat="51.8304625992" lon="-2.0561879687"><ele>200.09</ele><time>2017-09-13T11:16:04Z</time></trkpt><trkpt lat="51.8304873258" lon="-2.0559920836"><ele>199.13</ele><time>2017-09-13T11:16:21Z</time></trkpt><trkpt lat="51.8305191770" lon="-2.0558968652"><ele>195.77</ele><time>2017-09-13T11:16:33Z</time></trkpt><trkpt lat="51.8304796144" lon="-2.0557563007"><ele>197.21</ele><time>2017-09-13T11:16:43Z</time></trkpt><trkpt lat="51.8304686341" lon="-2.0556930173"><ele>194.80</ele><time>2017-09-13T11:17:07Z</time></trkpt><trkpt lat="51.8304968812" lon="-2.0556107070"><ele>194.80</ele><time>2017-09-13T11:17:27Z</time></trkpt><trkpt lat="51.8305819575" lon="-2.0553998183"><ele>191.44</ele><time>2017-09-13T11:17:45Z</time></trkpt><trkpt lat="51.8306685425" lon="-2.0551445894"><ele>192.40</ele><time>2017-09-13T11:18:05Z</time></trkpt><trkpt lat="51.8307780102" lon="-2.0549767837"><ele>188.56</ele><time>2017-09-13T11:18:23Z</time></trkpt><trkpt lat="51.8308864720" lon="-2.0548041165"><ele>188.56</ele><time>2017-09-13T11:18:41Z</time></trkpt><trkpt lat="51.8309381884" lon="-2.0547374804"><ele>189.04</ele><time>2017-09-13T11:18:55Z</time></trkpt><trkpt lat="51.8309579697" lon="-2.0547062997"><ele>187.11</ele><time>2017-09-13T11:18:59Z</time></trkpt><trkpt lat="51.8310189061" lon="-2.0545157790"><ele>188.56</ele><time>2017-09-13T11:19:17Z</time></trkpt><trkpt lat="51.8310090993" lon="-2.0544452872"><ele>189.52</ele><time>2017-09-13T11:19:24Z</time></trkpt><trkpt lat="51.8309590593" lon="-2.0542635676"><ele>186.63</ele><time>2017-09-13T11:19:38Z</time></trkpt><trkpt lat="51.8308785092" lon="-2.0539337397"><ele>186.15</ele><time>2017-09-13T11:19:58Z</time></trkpt><trkpt lat="51.8308326602" lon="-2.0537748188"><ele>187.59</ele><time>2017-09-13T11:20:08Z</time></trkpt><trkpt lat="51.8308066763" lon="-2.0537426323"><ele>186.63</ele><time>2017-09-13T11:20:12Z</time></trkpt><trkpt lat="51.8307594862" lon="-2.0537986234"><ele>186.63</ele><time>2017-09-13T11:20:27Z</time></trkpt><trkpt lat="51.8305377848" lon="-2.0538858790"><ele>185.67</ele><time>2017-09-13T11:20:46Z</time></trkpt><trkpt lat="51.8305056822" lon="-2.0538947638"><ele>186.15</ele><time>2017-09-13T11:20:51Z</time></trkpt><trkpt lat="51.8304941989" lon="-2.0538978651"><ele>187.59</ele><time>2017-09-13T11:20:53Z</time></trkpt><trkpt lat="51.8303985614" lon="-2.0539268665"><ele>187.11</ele><time>2017-09-13T11:21:06Z</time></trkpt><trkpt lat="51.8302670494" lon="-2.0540299639"><ele>187.11</ele><time>2017-09-13T11:21:26Z</time></trkpt><trkpt lat="51.8300671410" lon="-2.0540728793"><ele>189.52</ele><time>2017-09-13T11:21:42Z</time></trkpt><trkpt lat="51.8298668973" lon="-2.0541779045"><ele>189.52</ele><time>2017-09-13T11:21:59Z</time></trkpt><trkpt lat="51.8297054619" lon="-2.0542086661"><ele>191.44</ele><time>2017-09-13T11:22:14Z</time></trkpt><trkpt lat="51.8295771349" lon="-2.0542514976"><ele>191.92</ele><time>2017-09-13T11:22:29Z</time></trkpt><trkpt lat="51.8294602074" lon="-2.0543563552"><ele>191.92</ele><time>2017-09-13T11:22:44Z</time></trkpt><trkpt lat="51.8294274341" lon="-2.0543666650"><ele>193.36</ele><time>2017-09-13T11:22:47Z</time></trkpt><trkpt lat="51.8292421941" lon="-2.0544250030"><ele>192.88</ele><time>2017-09-13T11:23:06Z</time></trkpt><trkpt lat="51.8292146176" lon="-2.0544325467"><ele>193.84</ele><time>2017-09-13T11:23:09Z</time></trkpt><trkpt lat="51.8291188125" lon="-2.0544387493"><ele>193.84</ele><time>2017-09-13T11:23:20Z</time></trkpt><trkpt lat="51.8290199898" lon="-2.0543464646"><ele>193.84</ele><time>2017-09-13T11:23:39Z</time></trkpt><trkpt lat="51.8289466482" lon="-2.0541701093"><ele>192.88</ele><time>2017-09-13T11:23:55Z</time></trkpt><trkpt lat="51.8289305549" lon="-2.0540816803"><ele>190.96</ele><time>2017-09-13T11:24:02Z</time></trkpt><trkpt lat="51.8288896512" lon="-2.0539052412"><ele>191.92</ele><time>2017-09-13T11:24:16Z</time></trkpt><trkpt lat="51.8288195785" lon="-2.0536785107"><ele>189.52</ele><time>2017-09-13T11:24:33Z</time></trkpt><trkpt lat="51.8287569657" lon="-2.0534514450"><ele>189.04</ele><time>2017-09-13T11:24:51Z</time></trkpt><trkpt lat="51.8287507631" lon="-2.0533983875"><ele>188.08</ele><time>2017-09-13T11:24:55Z</time></trkpt><trkpt lat="51.8287195824" lon="-2.0532391313"><ele>188.08</ele><time>2017-09-13T11:25:10Z</time></trkpt><trkpt lat="51.8286940176" lon="-2.0531449188"><ele>188.08</ele><time>2017-09-13T11:25:27Z</time></trkpt><trkpt lat="51.8286739010" lon="-2.0530859102"><ele>188.08</ele><time>2017-09-13T11:25:30Z</time></trkpt><trkpt lat="51.8286320753" lon="-2.0529753529"><ele>188.08</ele><time>2017-09-13T11:25:47Z</time></trkpt><trkpt lat="51.8286131322" lon="-2.0529712457"><ele>188.08</ele><time>2017-09-13T11:26:13Z</time></trkpt><trkpt lat="51.8285918422" lon="-2.0529507101"><ele>188.56</ele><time>2017-09-13T11:26:15Z</time></trkpt><trkpt lat="51.8285668641" lon="-2.0529067051"><ele>189.04</ele><time>2017-09-13T11:26:19Z</time></trkpt><trkpt lat="51.8285262119" lon="-2.0528134983"><ele>189.04</ele><time>2017-09-13T11:26:25Z</time></trkpt><trkpt lat="51.8285115436" lon="-2.0527746063"><ele>189.52</ele><time>2017-09-13T11:26:27Z</time></trkpt><trkpt lat="51.8284405489" lon="-2.0525887795"><ele>190.00</ele><time>2017-09-13T11:26:40Z</time></trkpt><trkpt lat="51.8284235336" lon="-2.0525384881"><ele>189.52</ele><time>2017-09-13T11:26:44Z</time></trkpt><trkpt lat="51.8283559754" lon="-2.0523810759"><ele>186.63</ele><time>2017-09-13T11:26:57Z</time></trkpt><trkpt lat="51.8282789458" lon="-2.0521672536"><ele>189.04</ele><time>2017-09-13T11:27:10Z</time></trkpt><trkpt lat="51.8282417301" lon="-2.0520976838"><ele>186.63</ele><time>2017-09-13T11:27:15Z</time></trkpt><trkpt lat="51.8281547260" lon="-2.0518597215"><ele>187.11</ele><time>2017-09-13T11:27:31Z</time></trkpt><trkpt lat="51.8280549813" lon="-2.0516452286"><ele>187.11</ele><time>2017-09-13T11:27:46Z</time></trkpt><trkpt lat="51.8280257285" lon="-2.0515604038"><ele>187.11</ele><time>2017-09-13T11:27:52Z</time></trkpt><trkpt lat="51.8280118983" lon="-2.0515142195"><ele>186.63</ele><time>2017-09-13T11:27:56Z</time></trkpt><trkpt lat="51.8279257324" lon="-2.0512778498"><ele>187.11</ele><time>2017-09-13T11:28:12Z</time></trkpt><trkpt lat="51.8278500438" lon="-2.0510964654"><ele>185.67</ele><time>2017-09-13T11:28:25Z</time></trkpt><trkpt lat="51.8278147560" lon="-2.0509852376"><ele>185.67</ele><time>2017-09-13T11:28:31Z</time></trkpt><trkpt lat="51.8277181964" lon="-2.0507921185"><ele>185.67</ele><time>2017-09-13T11:28:48Z</time></trkpt><trkpt lat="51.8276971579" lon="-2.0507487841"><ele>185.67</ele><time>2017-09-13T11:28:52Z</time></trkpt><trkpt lat="51.8276073039" lon="-2.0505157672"><ele>185.19</ele><time>2017-09-13T11:29:08Z</time></trkpt><trkpt lat="51.8275674898" lon="-2.0504005160"><ele>185.19</ele><time>2017-09-13T11:29:15Z</time></trkpt><trkpt lat="51.8274672423" lon="-2.0502043795"><ele>183.75</ele><time>2017-09-13T11:29:30Z</time></trkpt><trkpt lat="51.8273659889" lon="-2.0499811694"><ele>183.27</ele><time>2017-09-13T11:29:45Z</time></trkpt><trkpt lat="51.8272793200" lon="-2.0497806743"><ele>183.27</ele><time>2017-09-13T11:30:01Z</time></trkpt><trkpt lat="51.8272455409" lon="-2.0496753976"><ele>182.79</ele><time>2017-09-13T11:30:07Z</time></trkpt><trkpt lat="51.8271705229" lon="-2.0495379344"><ele>182.79</ele><time>2017-09-13T11:30:18Z</time></trkpt><trkpt lat="51.8270943314" lon="-2.0493748225"><ele>181.83</ele><time>2017-09-13T11:30:29Z</time></trkpt><trkpt lat="51.8270443752" lon="-2.0492669474"><ele>181.35</ele><time>2017-09-13T11:30:42Z</time></trkpt><trkpt lat="51.8269590475" lon="-2.0491227787"><ele>180.87</ele><time>2017-09-13T11:30:55Z</time></trkpt><trkpt lat="51.8269209936" lon="-2.0489465073"><ele>178.94</ele><time>2017-09-13T11:31:10Z</time></trkpt><trkpt lat="51.8268615659" lon="-2.0486870036"><ele>177.02</ele><time>2017-09-13T11:31:25Z</time></trkpt><trkpt lat="51.8267452251" lon="-2.0484965667"><ele>175.10</ele><time>2017-09-13T11:31:43Z</time></trkpt><trkpt lat="51.8266844563" lon="-2.0483697485"><ele>174.62</ele><time>2017-09-13T11:31:51Z</time></trkpt><trkpt lat="51.8266157247" lon="-2.0481310319"><ele>173.66</ele><time>2017-09-13T11:32:08Z</time></trkpt><trkpt lat="51.8265220150" lon="-2.0478236675"><ele>174.62</ele><time>2017-09-13T11:32:30Z</time></trkpt><trkpt lat="51.8264640123" lon="-2.0476333145"><ele>177.02</ele><time>2017-09-13T11:32:46Z</time></trkpt><trkpt lat="51.8263373617" lon="-2.0473952685"><ele>178.46</ele><time>2017-09-13T11:33:06Z</time></trkpt><trkpt lat="51.8262561411" lon="-2.0473821089"><ele>182.31</ele><time>2017-09-13T11:33:19Z</time></trkpt><trkpt lat="51.8262435682" lon="-2.0473476592"><ele>179.90</ele><time>2017-09-13T11:33:22Z</time></trkpt><trkpt lat="51.8262288999" lon="-2.0472881477"><ele>180.87</ele><time>2017-09-13T11:33:26Z</time></trkpt><trkpt lat="51.8261994794" lon="-2.0472178236"><ele>180.87</ele><time>2017-09-13T11:33:40Z</time></trkpt><trkpt lat="51.8262031674" lon="-2.0472237747"><ele>181.35</ele><time>2017-09-13T11:33:43Z</time></trkpt></trkseg></trk></gpx>